Time;durP1;ratioP1;P1;durP2;ratioP2;P2;SDS_P1;SDS_P2;PMS_P1;PMS_P2;Temp;Humidity;BMP_temperature;BMP_pressure;BME280_temperature;BME280_humidity;BME280_pressure;Samples;Min_cycle;Max_cycle;Signal;HPM_P1;HPM_P2
2022/05/10 00:01:31;;;;;;;23.77;12.43;;;;;;;-145.18;100.00;46640.88;4970182;28;20106;-72
2022/05/10 00:03:57;;;;;;;;;;;;;;;-145.18;100.00;46631.09;4953253;28;20117;-72
2022/05/10 00:06:23;;;;;;;23.48;13.02;;;;;;;-145.18;100.00;46658.44;4969645;28;19962;-72
2022/05/10 00:08:49;;;;;;;24.23;13.33;;;;;;;-145.18;100.00;46648.69;4970529;28;20039;-72
2022/05/10 00:11:14;;;;;;;21.50;12.93;;;;;;;-145.18;100.00;46635.00;4970014;28;20031;-72
2022/05/10 00:13:40;;;;;;;28.67;13.63;;;;;;;-145.18;100.00;46629.13;4970471;28;20037;-72
2022/05/10 00:16:09;;;;;;;20.20;12.87;;;;;;;-145.18;100.00;46656.50;4969894;28;20035;-72
2022/05/10 00:18:34;;;;;;;25.00;12.90;;;;;;;-145.18;100.00;46625.22;4970457;28;20035;-72
2022/05/10 00:21:00;;;;;;;22.10;13.10;;;;;;;-145.18;100.00;46640.88;4969908;28;20038;-72
2022/05/10 00:23:25;;;;;;;24.80;12.80;;;;;;;-145.18;100.00;46640.88;4970457;28;20165;-72
2022/05/10 00:25:50;;;;;;;25.40;13.07;;;;;;;-145.18;100.00;46623.28;4970543;28;20043;-72
2022/05/10 00:28:17;;;;;;;27.63;13.57;;;;;;;-145.18;100.00;46633.06;4970457;28;20129;-72
2022/05/10 00:30:43;;;;;;;20.13;12.53;;;;;;;-145.18;100.00;46627.19;4973896;28;20043;-72
2022/05/10 00:33:12;;;;;;;26.27;13.73;;;;;;;-145.18;100.00;46650.63;4973244;28;20050;-72
2022/05/10 00:35:38;;;;;;;19.53;11.90;;;;;;;-145.18;100.00;46640.88;4973384;28;20102;-72
2022/05/10 00:38:04;;;;;;;18.73;11.37;;;;;;;-145.18;100.00;46648.69;4972840;28;20074;-72
2022/05/10 00:40:32;;;;;;;19.77;12.57;;;;;;;-145.18;100.00;46642.81;4973718;28;20034;-72
2022/05/10 00:43:31;;;;;;;20.83;12.63;;;;;;;-145.18;100.00;46636.94;4972582;28;20038;-72
2022/05/10 00:46:07;;;;;;;21.83;11.17;;;;;;;-145.18;100.00;46648.69;4973355;28;20038;-72
2022/05/10 00:49:14;;;;;;;20.70;11.97;;;;;;;-145.18;100.00;46658.44;4973113;28;20043;-71
2022/05/10 00:51:57;;;;;;;16.45;12.13;;;;;;;-145.18;100.00;46685.78;4972803;28;20478;-72
2022/05/10 00:54:54;;;;;;;24.07;12.53;;;;;;;-145.18;100.00;46654.53;4973248;28;20089;-72
2022/05/10 00:57:41;;;;;;;26.67;14.50;;;;;;;-145.18;100.00;46636.94;4972870;28;20046;-72
2022/05/10 01:00:11;;;;;;;26.13;16.67;;;;;;;-145.18;100.00;46636.94;4972175;28;20038;-72
2022/05/10 01:02:55;;;;;;;24.93;15.50;;;;;;;-145.18;100.00;46613.50;4953374;28;20042;-72
2022/05/10 01:06:03;;;;;;;21.37;12.77;;;;;;;-145.18;100.00;46636.94;4953669;29;20120;-72
2022/05/10 01:08:43;;;;;;;24.07;14.37;;;;;;;-145.18;100.00;46627.19;4945777;29;20051;-72
2022/05/10 01:11:18;;;;;;;27.47;15.70;;;;;;;-145.18;100.00;46613.50;4952747;29;20031;-72
2022/05/10 01:14:04;;;;;;;28.63;16.43;;;;;;;-145.18;100.00;46605.69;4954021;29;20031;-72
2022/05/10 01:16:29;;;;;;;27.45;17.33;;;;;;;-145.18;100.00;46592.03;4953137;29;20195;-72
2022/05/10 01:18:55;;;;;;;28.03;17.00;;;;;;;-145.18;100.00;46584.22;4953324;29;20398;-72
2022/05/10 01:21:51;;;;;;;30.93;16.37;;;;;;;-145.18;100.00;46570.53;4953448;29;20118;-72
2022/05/10 01:24:41;;;;;;;30.70;17.00;;;;;;;-145.18;100.00;46580.31;4936152;29;20034;-72
2022/05/10 01:27:28;;;;;;;29.67;16.97;;;;;;;-145.18;100.00;46574.44;4952342;29;20031;-73
2022/05/10 01:30:01;;;;;;;25.03;17.03;;;;;;;-145.18;100.00;46578.34;4953364;29;20042;-72
2022/05/10 01:35:28;;;;;;;27.50;16.40;;;;;;;-145.18;100.00;46568.59;4953494;29;20069;-72
2022/05/10 01:37:59;;;;;;;25.77;15.63;;;;;;;-145.18;100.00;46586.16;4952611;29;20071;-72
2022/05/10 01:40:48;;;;;;;28.70;16.70;;;;;;;-145.18;100.00;46574.44;4952125;28;20051;-72
2022/05/10 01:43:21;;;;;;;24.23;16.70;;;;;;;-145.18;100.00;46580.31;4952428;29;20122;-72
2022/05/10 01:45:57;;;;;;;26.87;17.50;;;;;;;-145.18;100.00;46566.63;4953173;29;20061;-72
2022/05/10 01:48:22;;;;;;;31.52;17.77;;;;;;;-145.18;100.00;46574.44;4952394;29;20043;-72
2022/05/10 01:50:55;;;;;;;27.83;16.53;;;;;;;-145.18;100.00;46584.22;4953046;29;20436;-72
2022/05/10 01:53:29;;;;;;;30.03;16.60;;;;;;;-145.18;100.00;46586.16;4952235;29;20265;-73
2022/05/10 01:56:01;;;;;;;23.07;15.83;;;;;;;-145.18;100.00;46588.13;4952571;29;20035;-72
2022/05/10 01:58:30;;;;;;;28.87;16.23;;;;;;;-145.18;100.00;46613.50;4952713;29;20396;-72
2022/05/10 02:08:06;;;;;;;29.17;16.47;;;;;;;-145.18;100.00;46597.88;4952053;29;20058;-73
2022/05/10 02:11:50;;;;;;;29.23;16.83;;;;;;;-145.18;100.00;46592.03;4952872;29;20467;-73
2022/05/10 02:15:22;;;;;;;27.63;16.40;;;;;;;-145.18;100.00;46593.97;4952525;29;20042;-73
2022/05/10 02:18:34;;;;;;;26.40;16.63;;;;;;;-145.18;100.00;46621.31;4952283;29;20039;-73
2022/05/10 02:22:34;;;;;;;27.93;17.20;;;;;;;-145.18;100.00;46613.50;4952747;29;20043;-73
2022/05/10 02:26:14;;;;;;;25.73;15.80;;;;;;;-145.18;100.00;46621.31;4952741;29;20102;-73
2022/05/10 02:29:48;;;;;;;28.93;16.83;;;;;;;-145.18;100.00;46625.22;4939251;29;20051;-73
2022/05/10 02:33:54;;;;;;;27.33;16.90;;;;;;;-145.18;100.00;46615.47;4951528;29;20466;-73
2022/05/10 02:37:47;;;;;;;25.03;16.23;;;;;;;-145.18;100.00;46636.94;4952342;29;20106;-72
2022/05/10 02:41:43;;;;;;;32.67;16.30;;;;;;;-145.18;100.00;46613.50;4952458;29;20067;-72
2022/05/10 02:49:16;;;;;;;27.73;16.37;;;;;;;-145.18;100.00;46629.13;4951006;29;20515;-73
2022/05/10 02:53:11;;;;;;;26.42;16.85;;;;;;;-145.18;100.00;46636.94;4930004;29;20123;-72
2022/05/10 03:00:42;;;;;;;31.80;16.87;;;;;;;-145.18;100.00;46619.38;4930091;29;20049;-72
2022/05/10 11:32:59;;;;;;;14.50;4.80;;;;;;;-145.18;100.00;46963.19;4912871;29;20329;-72
2022/05/10 11:36:22;;;;;;;9.00;4.57;;;;;;;-145.18;100.00;46984.66;4913193;29;20043;-72
2022/05/10 11:39:38;;;;;;;13.83;5.50;;;;;;;-145.18;100.00;46994.44;4912219;29;20048;-73
2022/05/10 11:43:01;;;;;;;15.35;6.25;;;;;;;-145.18;100.00;46992.47;4913709;29;20032;-72
2022/05/10 11:46:29;;;;;;;11.57;5.50;;;;;;;-145.18;100.00;46988.56;4913247;29;20500;-74
